»·PEaware :: N5GL KMFR-KPDX

N5GL :: KMFR-KPDX

FLIGHT INFORMATION

Flight Status: Arrived
Operator: Privately registered:
United States
More flights under this callsign
Pilot: Georg L. (13308)
Aircraft: SOCATA TBM-900
(TBM9)
More flights by this aircraft type
Origin: KMFR Rogue Valley Intl-Medford
United States
Destination: KPDX Portland Intl
United States
More flights between these airports :: More routes between these airports
Route: JKSN1 OED V23 EUG V481 CVO V495 UBG
File this flight plan on PilotEdge
Remarks:
Altitude:
(Current/Filed)
24,000ft
Speed:
(Current/Filed)
304kts
Departed: 28-Dec-20 01:22 PM
Arrived: 28-Dec-20 02:10 PM
Distance/Time
Traveled:
193nm/0:48
Distance/Time
To Go:
Arrived

Flight Plot

Page will automatically refresh every two minutes.

Flight plan parsing failed; only flown route is shown


Map Options




Map Legend


Flown Route
Filed Route
Departure Airport
Arrival Airport
Navaid (VOR, NDB)
Fix

Horizontal Profiles

Position Reports

Time Latitude Longitude Heading Altitude Ground
Speed
28-Dec-20 13:01 42.371295 -122.876935 204 1316ft 0kts
28-Dec-20 13:02 42.371295 -122.876935 204 1316ft 0kts
28-Dec-20 13:03 42.371295 -122.876935 204 1316ft 0kts
28-Dec-20 13:04 42.371295 -122.876935 204 1316ft 0kts
28-Dec-20 13:05 42.371295 -122.876935 204 1316ft 0kts
28-Dec-20 13:06 42.371295 -122.876935 204 1316ft 0kts
28-Dec-20 13:07 42.371295 -122.876935 204 1316ft 0kts
28-Dec-20 13:08 42.371295 -122.876935 204 1316ft 0kts
28-Dec-20 13:09 42.371295 -122.876935 204 1316ft 0kts
28-Dec-20 13:10 42.371295 -122.876935 204 1316ft 0kts
28-Dec-20 13:11 42.371295 -122.876935 204 1316ft 0kts
28-Dec-20 13:12 42.371999 -122.875882 44 1316ft 2kts
28-Dec-20 13:13 42.372058 -122.875555 100 1316ft 1kts
28-Dec-20 13:14 42.370668 -122.873160 75 1318ft 11kts
28-Dec-20 13:15 42.376226 -122.875574 339 1309ft 21kts
28-Dec-20 13:16 42.381104 -122.878116 339 1307ft 15kts
28-Dec-20 13:17 42.385819 -122.880273 68 1296ft 0kts
28-Dec-20 13:18 42.385819 -122.880273 68 1296ft 0kts
28-Dec-20 13:19 42.385819 -122.880273 68 1296ft 0kts
28-Dec-20 13:20 42.385819 -122.880273 68 1296ft 0kts
28-Dec-20 13:21 42.371409 -122.871860 160 1891ft 116kts
28-Dec-20 13:22 42.343947 -122.884760 286 4127ft 134kts
28-Dec-20 13:23 42.376908 -122.910600 337 6559ft 132kts
28-Dec-20 13:24 42.414715 -122.929387 9 8982ft 136kts
28-Dec-20 13:25 42.455931 -122.919162 14 11531ft 146kts
28-Dec-20 13:26 42.508127 -122.917923 349 12947ft 209kts
28-Dec-20 13:27 42.568356 -122.929309 352 14822ft 205kts
28-Dec-20 13:28 42.630209 -122.940678 351 16498ft 210kts
28-Dec-20 13:29 42.693891 -122.952455 351 18116ft 217kts
28-Dec-20 13:30 42.759243 -122.964578 351 19731ft 221kts
28-Dec-20 13:31 42.826580 -122.977080 351 21146ft 226kts
28-Dec-20 13:32 42.891673 -122.989190 351 22513ft 232kts
28-Dec-20 13:33 42.959881 -123.001906 351 23900ft 237kts
28-Dec-20 13:34 43.036177 -123.016164 351 24082ft 272kts
28-Dec-20 13:35 43.119171 -123.031716 351 24081ft 286kts
28-Dec-20 13:36 43.203077 -123.047483 351 24077ft 292kts
28-Dec-20 13:37 43.291345 -123.064112 351 24075ft 293kts
28-Dec-20 13:38 43.380208 -123.080901 351 24076ft 294kts
28-Dec-20 13:39 43.468362 -123.097607 351 24074ft 294kts
28-Dec-20 13:40 43.555755 -123.114217 351 24074ft 294kts
28-Dec-20 13:41 43.643096 -123.130865 351 24075ft 294kts
28-Dec-20 13:42 43.729441 -123.147371 351 24073ft 294kts
28-Dec-20 13:43 43.812666 -123.163325 351 24072ft 294kts
28-Dec-20 13:44 43.898611 -123.179851 351 24072ft 294kts
28-Dec-20 13:45 43.982495 -123.196033 351 24073ft 294kts
28-Dec-20 13:46 44.068009 -123.212579 351 23224ft 310kts
28-Dec-20 13:47 44.157405 -123.229618 352 22194ft 315kts
28-Dec-20 13:48 44.249020 -123.246692 351 21133ft 312kts
28-Dec-20 13:49 44.339069 -123.263527 351 20124ft 310kts
28-Dec-20 13:50 44.426629 -123.279942 351 20125ft 290kts
28-Dec-20 13:51 44.511481 -123.289652 13 20116ft 288kts
28-Dec-20 13:52 44.592964 -123.259617 13 20128ft 287kts
28-Dec-20 13:53 44.675848 -123.229299 13 19703ft 299kts
28-Dec-20 13:54 44.764532 -123.196779 13 18222ft 313kts
28-Dec-20 13:55 44.854583 -123.163646 14 16728ft 314kts
28-Dec-20 13:56 44.935391 -123.133819 14 15383ft 311kts
28-Dec-20 13:57 45.023431 -123.101210 14 13897ft 307kts
28-Dec-20 13:58 45.108570 -123.069586 14 12424ft 301kts
28-Dec-20 13:59 45.189061 -123.036876 33 10974ft 294kts
28-Dec-20 14:00 45.247466 -122.956019 44 9549ft 283kts
28-Dec-20 14:01 45.301250 -122.879322 44 8190ft 265kts
28-Dec-20 14:02 45.353285 -122.804715 44 7187ft 265kts
28-Dec-20 14:03 45.402708 -122.733527 44 6157ft 217kts
28-Dec-20 14:04 45.439534 -122.678806 44 5070ft 179kts
28-Dec-20 14:05 45.474873 -122.629177 34 4063ft 177kts
28-Dec-20 14:06 45.511318 -122.581006 37 2995ft 182kts
28-Dec-20 14:07 45.547521 -122.546513 25 1533ft 133kts
28-Dec-20 14:09 45.578570 -122.554730 312 359ft 111kts
28-Dec-20 14:10 45.589153 -122.581451 267 25ft 15kts
28-Dec-20 14:11 45.588400 -122.582368 206 25ft 0kts
28-Dec-20 14:12 45.588140 -122.582569 207 25ft 8kts
28-Dec-20 14:13 45.586315 -122.579410 117 25ft 13kts
28-Dec-20 14:14 45.585268 -122.578797 299 25ft 0kts
28-Dec-20 14:15 45.585268 -122.578797 299 25ft 0kts
28-Dec-20 14:16 45.585267 -122.578797 299 25ft 0kts
28-Dec-20 14:17 45.585267 -122.578797 299 25ft 0kts

Navigation Log

Ident Type
Flight plan parsing failed, navigation log unavailable